Time;durP1;ratioP1;P1;durP2;ratioP2;P2;SDS_P1;SDS_P2;PMS_P1;PMS_P2;Temp;Humidity;BMP_temperature;BMP_pressure;BME280_temperature;BME280_humidity;BME280_pressure;Samples;Min_cycle;Max_cycle;Signal;HPM_P1;HPM_P2
2023/01/01 00:00:49;;;;;;;5.13;2.53;;;15.40;62.50;;;;;;8332273;28;20339;-68
2023/01/01 00:04:49;;;;;;;3.90;2.10;;;15.40;61.60;;;;;;8326827;28;20179;-69
2023/01/01 00:13:13;;;;;;;2.47;1.70;;;15.60;57.60;;;;;;8330511;28;20198;-67
2023/01/01 00:17:14;;;;;;;4.73;1.80;;;15.60;56.00;;;;;;8333030;28;20581;-69
2023/01/01 00:21:14;;;;;;;2.43;1.70;;;15.60;54.80;;;;;;8329718;28;20237;-68
2023/01/01 00:25:17;;;;;;;2.13;1.60;;;15.60;52.90;;;;;;8327533;28;20182;-69
2023/01/01 00:29:17;;;;;;;1.87;1.30;;;15.60;55.00;;;;;;8333174;28;20182;-70
2023/01/01 00:33:18;;;;;;;2.33;1.40;;;15.60;55.30;;;;;;8332242;28;20209;-69
2023/01/01 00:37:19;;;;;;;2.47;1.53;;;15.60;55.60;;;;;;8329064;28;20222;-69
2023/01/01 00:41:20;;;;;;;2.13;1.53;;;15.60;55.50;;;;;;8334435;28;20248;-69
2023/01/01 00:45:21;;;;;;;2.37;1.70;;;15.50;55.60;;;;;;8328797;28;20185;-68
2023/01/01 00:49:22;;;;;;;3.53;1.60;;;15.50;55.90;;;;;;8324419;28;20190;-69
2023/01/01 00:53:23;;;;;;;3.20;1.83;;;15.50;55.70;;;;;;8338065;28;20186;-69
2023/01/01 00:57:24;;;;;;;2.33;1.73;;;15.60;54.50;;;;;;8328183;28;20182;-69
2023/01/01 01:01:25;;;;;;;2.60;2.13;;;15.60;54.10;;;;;;8326494;28;20276;-69
2023/01/01 01:05:26;;;;;;;2.70;1.97;;;15.60;53.80;;;;;;8331205;28;20242;-68
2023/01/01 01:09:27;;;;;;;4.27;2.13;;;15.60;53.60;;;;;;8327615;28;20185;-68
2023/01/01 01:13:28;;;;;;;3.37;2.17;;;15.60;50.70;;;;;;8328930;28;20189;-69
2023/01/01 01:17:29;;;;;;;3.67;2.30;;;15.70;50.20;;;;;;8325845;28;20265;-69
2023/01/01 01:21:33;;;;;;;3.87;2.30;;;15.60;53.40;;;;;;8327674;28;20600;-68
2023/01/01 01:25:34;;;;;;;3.17;2.00;;;15.60;52.20;;;;;;8330944;28;20232;-69
2023/01/01 01:29:34;;;;;;;2.87;2.07;;;15.60;50.00;;;;;;8332854;28;20270;-69
2023/01/01 01:33:35;;;;;;;2.23;1.80;;;15.50;50.10;;;;;;8327620;28;20206;-68
2023/01/01 01:37:36;;;;;;;3.23;2.10;;;15.50;50.20;;;;;;8325980;28;20282;-69
2023/01/01 01:41:37;;;;;;;4.57;2.10;;;15.50;48.60;;;;;;8321984;28;20220;-69
2023/01/01 01:45:38;;;;;;;3.63;1.47;;;15.40;50.00;;;;;;8330628;28;20197;-69
2023/01/01 01:49:38;;;;;;;2.60;1.70;;;15.30;51.10;;;;;;8323855;28;20183;-69
2023/01/01 01:53:45;;;;;;;1.73;1.30;;;15.20;51.70;;;;;;8334741;28;20186;-69
2023/01/01 01:57:45;;;;;;;2.23;1.37;;;15.10;53.10;;;;;;8330090;28;20194;-68
2023/01/01 02:01:46;;;;;;;2.60;1.40;;;15.00;50.30;;;;;;8325737;28;20216;-69
2023/01/01 02:05:49;;;;;;;2.27;1.33;;;15.00;50.80;;;;;;8322425;28;20191;-69
2023/01/01 02:09:49;;;;;;;1.97;1.40;;;15.00;50.30;;;;;;8331910;28;20186;-68
2023/01/01 02:13:51;;;;;;;2.13;1.30;;;14.90;50.70;;;;;;8322876;28;20209;-69
2023/01/01 02:17:58;;;;;;;2.60;1.00;;;14.90;50.30;;;;;;8325389;28;20191;-69
2023/01/01 02:22:29;;;;;;;1.97;1.10;;;15.00;49.00;;;;;;8326361;28;20217;-69
2023/01/01 02:26:37;;;;;;;6.90;1.60;;;15.00;46.50;;;;;;8328725;28;20659;-69
2023/01/01 02:30:39;;;;;;;1.70;1.10;;;15.10;46.20;;;;;;8327413;28;20186;-68
2023/01/01 02:39:26;;;;;;;1.90;1.40;;;15.10;41.90;;;;;;8327840;28;20325;-69
2023/01/01 02:43:27;;;;;;;1.73;1.47;;;15.20;36.90;;;;;;8327407;28;20186;-68
2023/01/01 02:47:28;;;;;;;1.93;1.10;;;15.20;31.80;;;;;;8323268;28;20221;-69
2023/01/01 02:51:42;;;;;;;3.43;1.37;;;15.20;34.10;;;;;;8331159;28;20214;-68
2023/01/01 02:55:52;;;;;;;1.53;1.30;;;15.10;30.50;;;;;;8329577;28;20194;-68
2023/01/01 03:04:37;;;;;;;3.63;1.70;;;15.20;26.30;;;;;;8325482;28;20234;-68
2023/01/01 03:08:41;;;;;;;2.97;1.50;;;15.20;24.40;;;;;;8324669;28;20340;-68
2023/01/01 03:13:14;;;;;;;3.70;1.20;;;15.10;21.90;;;;;;8324381;28;20190;-68
2023/01/01 03:17:39;;;;;;;2.43;1.50;;;15.10;20.10;;;;;;8307796;28;20281;-69
2023/01/01 03:21:44;;;;;;;1.77;1.20;;;15.00;19.00;;;;;;8322157;28;20209;-69
2023/01/01 03:25:49;;;;;;;2.63;1.67;;;15.00;17.10;;;;;;8323853;28;20210;-68
2023/01/01 03:29:54;;;;;;;3.20;1.27;;;14.90;30.20;;;;;;8341117;28;20190;-69
2023/01/01 03:34:02;;;;;;;2.40;1.40;;;14.80;17.50;;;;;;8326579;28;20206;-69
2023/01/01 03:38:13;;;;;;;3.67;1.43;;;14.70;14.90;;;;;;8324321;28;20198;-69
2023/01/01 03:42:34;;;;;;;4.37;1.90;;;14.80;11.90;;;;;;8325739;28;20215;-69
2023/01/01 03:46:36;;;;;;;2.03;1.20;;;14.70;10.40;;;;;;8320609;28;20200;-69
2023/01/01 03:51:00;;;;;;;2.17;1.47;;;14.60;8.50;;;;;;8320816;28;20220;-69
2023/01/01 03:55:23;;;;;;;3.00;1.67;;;14.60;19.90;;;;;;8321250;28;20194;-69
2023/01/01 03:59:31;;;;;;;4.73;1.60;;;14.60;5.20;;;;;;8324798;28;20200;-69
2023/01/01 04:03:34;;;;;;;4.37;2.00;;;14.50;4.70;;;;;;8319585;28;20216;-67
2023/01/01 04:07:35;;;;;;;8.37;1.87;;;14.60;3.90;;;;;;8317482;28;20192;-68
2023/01/01 04:15:59;;;;;;;5.60;2.03;;;14.60;1.00;;;;;;8323000;28;20208;-69
2023/01/01 04:19:59;;;;;;;2.67;1.83;;;14.70;1.00;;;;;;8331560;28;20214;-69
2023/01/01 04:24:00;;;;;;;4.07;1.73;;;14.70;1.00;;;;;;8332133;28;20243;-69
2023/01/01 04:28:02;;;;;;;2.83;1.87;;;14.60;1.00;;;;;;8326115;28;20244;-70
2023/01/01 04:32:03;;;;;;;2.70;1.67;;;14.50;1.00;;;;;;8330343;28;20304;-69
2023/01/01 04:36:08;;;;;;;4.33;1.77;;;14.40;1.00;;;;;;8338478;28;20217;-69
2023/01/01 04:40:14;;;;;;;4.77;2.20;;;14.40;1.00;;;;;;8328495;28;20217;-70
2023/01/01 04:44:14;;;;;;;4.20;1.53;;;14.30;1.00;;;;;;8326814;28;20206;-69
2023/01/01 04:48:15;;;;;;;4.47;1.63;;;14.30;1.00;;;;;;8329114;28;20221;-69
2023/01/01 04:52:16;;;;;;;4.17;1.80;;;14.30;1.00;;;;;;8329334;28;20292;-69
2023/01/01 04:56:19;;;;;;;4.77;1.80;;;14.20;1.00;;;;;;8331133;28;20194;-69
2023/01/01 05:00:21;;;;;;;2.57;1.50;;;14.30;1.00;;;;;;8334734;28;20209;-69
2023/01/01 05:04:22;;;;;;;3.90;1.97;;;14.30;1.00;;;;;;8340490;28;20189;-68
2023/01/01 05:08:23;;;;;;;4.47;1.83;;;14.40;1.00;;;;;;8328901;28;20198;-69
2023/01/01 05:12:24;;;;;;;3.57;1.60;;;14.40;1.00;;;;;;8328797;28;20194;-68
2023/01/01 05:16:28;;;;;;;3.67;1.73;;;14.30;1.00;;;;;;8324384;28;20183;-69
2023/01/01 05:20:28;;;;;;;3.63;1.70;;;14.30;1.00;;;;;;8335869;28;20206;-68
2023/01/01 05:24:30;;;;;;;2.57;1.40;;;14.30;1.00;;;;;;8324313;28;20194;-69
2023/01/01 05:28:31;;;;;;;5.07;1.77;;;14.20;1.00;;;;;;8329895;28;20190;-69
2023/01/01 05:32:31;;;;;;;9.23;1.90;;;14.30;1.00;;;;;;8328250;28;20189;-68
2023/01/01 05:36:37;;;;;;;5.10;2.13;;;14.30;1.00;;;;;;8327363;28;20223;-69
2023/01/01 05:40:39;;;;;;;6.13;2.33;;;14.30;1.00;;;;;;8331483;28;20286;-69
2023/01/01 05:44:40;;;;;;;4.47;1.50;;;14.20;1.00;;;;;;8327032;28;20351;-69
2023/01/01 05:48:41;;;;;;;6.47;1.70;;;14.20;1.00;;;;;;8326970;28;20232;-69
2023/01/01 05:52:42;;;;;;;4.47;1.70;;;14.10;1.00;;;;;;8331827;28;20282;-68
2023/01/01 05:56:43;;;;;;;4.93;1.70;;;14.00;1.00;;;;;;8334900;28;20186;-68
2023/01/01 06:00:44;;;;;;;7.13;1.90;;;14.00;1.00;;;;;;8328604;28;20222;-69
2023/01/01 06:04:45;;;;;;;4.40;1.70;;;14.10;1.00;;;;;;8329279;28;20194;-69
2023/01/01 06:08:56;;;;;;;4.10;1.80;;;14.10;1.00;;;;;;8327837;28;20281;-69
2023/01/01 06:12:57;;;;;;;3.40;1.77;;;14.00;1.00;;;;;;8326777;28;20193;-69
2023/01/01 06:16:58;;;;;;;4.17;1.80;;;14.10;1.00;;;;;;8326328;28;20182;-69
2023/01/01 06:21:20;;;;;;;6.23;2.30;;;14.20;1.00;;;;;;8326138;28;20212;-69
2023/01/01 06:25:21;;;;;;;6.30;1.90;;;14.10;1.00;;;;;;8328128;28;20192;-69
2023/01/01 06:29:22;;;;;;;3.43;2.00;;;14.10;1.00;;;;;;8324053;28;20215;-68
2023/01/01 06:33:23;;;;;;;4.23;1.93;;;14.00;1.00;;;;;;8326804;28;20292;-69
2023/01/01 06:37:23;;;;;;;6.23;2.20;;;14.00;1.00;;;;;;8331612;28;20197;-69
2023/01/01 06:41:26;;;;;;;3.80;2.00;;;13.90;1.00;;;;;;8319538;28;20241;-68
2023/01/01 06:45:27;;;;;;;6.70;2.10;;;13.90;1.00;;;;;;8325038;28;20431;-69
2023/01/01 06:49:28;;;;;;;7.00;2.00;;;13.80;1.00;;;;;;8327134;28;20300;-69
2023/01/01 06:53:29;;;;;;;6.67;1.87;;;13.80;1.00;;;;;;8321935;28;20190;-69
2023/01/01 06:57:33;;;;;;;4.37;1.60;;;13.80;1.00;;;;;;8323860;28;20229;-69
2023/01/01 07:01:36;;;;;;;4.03;1.67;;;13.80;1.00;;;;;;8326193;28;20317;-68
2023/01/01 07:05:37;;;;;;;4.93;2.03;;;13.80;1.00;;;;;;8321091;28;20209;-69
2023/01/01 07:09:37;;;;;;;8.83;1.90;;;13.90;1.00;;;;;;8322077;28;20218;-69
2023/01/01 07:13:38;;;;;;;5.00;1.97;;;13.90;1.00;;;;;;8327525;28;20197;-68
2023/01/01 07:17:39;;;;;;;5.73;1.97;;;14.00;1.00;;;;;;8320488;28;20189;-69
2023/01/01 07:21:42;;;;;;;9.43;2.50;;;14.00;1.00;;;;;;8328033;28;20217;-68
2023/01/01 07:25:43;;;;;;;7.17;2.57;;;14.10;1.00;;;;;;8321156;28;20194;-69
2023/01/01 07:29:43;;;;;;;4.43;1.70;;;14.20;1.00;;;;;;8324122;28;20192;-68
2023/01/01 07:33:44;;;;;;;7.03;1.93;;;14.30;1.00;;;;;;8317157;28;20240;-69
2023/01/01 07:37:45;;;;;;;6.03;2.10;;;14.30;1.00;;;;;;8328082;28;20220;-71
2023/01/01 07:41:46;;;;;;;5.00;1.60;;;14.50;1.00;;;;;;8316392;28;20229;-70
2023/01/01 07:45:47;;;;;;;4.27;1.77;;;14.70;1.00;;;;;;8315563;28;20222;-71
2023/01/01 07:49:48;;;;;;;5.57;2.17;;;15.00;1.00;;;;;;8319932;28;20192;-70
2023/01/01 07:53:50;;;;;;;4.10;2.07;;;15.20;1.00;;;;;;8331527;28;20231;-70
2023/01/01 07:57:51;;;;;;;4.50;1.97;;;15.40;1.00;;;;;;8331405;28;20201;-69
2023/01/01 08:01:51;;;;;;;5.40;2.30;;;15.50;1.00;;;;;;8334281;28;20210;-71
2023/01/01 08:05:52;;;;;;;5.83;2.10;;;15.60;1.00;;;;;;8329576;28;20193;-72
2023/01/01 08:09:53;;;;;;;4.93;2.10;;;15.70;1.00;;;;;;8325468;28;20191;-72
2023/01/01 08:13:54;;;;;;;4.90;2.20;;;15.80;1.00;;;;;;8329472;28;20190;-72
2023/01/01 08:17:56;;;;;;;6.30;2.20;;;15.90;1.00;;;;;;8328149;28;20423;-71
2023/01/01 08:21:57;;;;;;;4.00;2.37;;;16.10;1.00;;;;;;8332659;28;20309;-71
2023/01/01 08:26:00;;;;;;;6.20;2.57;;;16.10;1.00;;;;;;8327495;28;20186;-71
2023/01/01 08:30:00;;;;;;;4.33;2.53;;;16.20;1.00;;;;;;8326053;28;20236;-70
2023/01/01 08:34:06;;;;;;;4.80;2.20;;;16.10;1.00;;;;;;8327418;28;20228;-71
2023/01/01 08:38:11;;;;;;;4.90;2.80;;;16.10;1.00;;;;;;8331069;28;20200;-73
2023/01/01 08:42:12;;;;;;;3.77;2.73;;;16.10;1.00;;;;;;8341666;28;20238;-72
2023/01/01 08:46:12;;;;;;;3.93;2.37;;;16.00;1.00;;;;;;8328860;28;20193;-72
2023/01/01 08:50:13;;;;;;;5.43;2.73;;;16.00;1.00;;;;;;8331610;28;20215;-71
2023/01/01 08:54:14;;;;;;;4.10;2.70;;;16.00;1.00;;;;;;8336418;28;20251;-70
2023/01/01 08:58:15;;;;;;;4.73;2.50;;;16.00;1.00;;;;;;8324730;28;20182;-71
2023/01/01 09:02:16;;;;;;;4.00;2.60;;;16.10;1.00;;;;;;8323962;28;20208;-72
2023/01/01 09:06:16;;;;;;;3.57;2.57;;;16.10;1.00;;;;;;8326730;28;20186;-71
2023/01/01 09:10:17;;;;;;;4.23;2.37;;;16.20;1.00;;;;;;8325962;28;20190;-70
2023/01/01 09:14:19;;;;;;;5.13;2.47;;;16.20;1.00;;;;;;8322693;28;20196;-72
2023/01/01 09:18:20;;;;;;;7.80;2.47;;;16.30;1.00;;;;;;8329147;28;20193;-73
2023/01/01 09:22:21;;;;;;;3.60;2.50;;;16.40;1.00;;;;;;8323698;28;20217;-70
2023/01/01 09:26:22;;;;;;;4.97;2.77;;;16.50;1.00;;;;;;8331847;28;20235;-70
2023/01/01 09:30:22;;;;;;;6.97;2.53;;;16.70;1.00;;;;;;8318248;28;20287;-71
2023/01/01 09:34:23;;;;;;;3.63;2.50;;;16.80;1.00;;;;;;8329778;28;20321;-71
2023/01/01 09:38:24;;;;;;;4.10;3.07;;;16.90;1.00;;;;;;8318983;28;20218;-71
2023/01/01 09:42:31;;;;;;;4.97;2.83;;;17.10;1.00;;;;;;8328086;28;20382;-69
2023/01/01 09:46:32;;;;;;;5.07;3.20;;;17.30;1.00;;;;;;8331840;28;20221;-71
2023/01/01 09:50:42;;;;;;;3.90;2.47;;;17.40;1.00;;;;;;8330522;28;20196;-69
2023/01/01 09:54:58;;;;;;;4.07;2.70;;;17.50;1.00;;;;;;8336802;28;20186;-71
2023/01/01 09:58:59;;;;;;;4.10;2.80;;;17.60;1.00;;;;;;8323706;28;20187;-69
2023/01/01 10:03:16;;;;;;;5.00;3.07;;;17.80;1.00;;;;;;8328089;28;20217;-71
2023/01/01 10:07:42;;;;;;;7.43;3.10;;;17.90;1.00;;;;;;8328324;28;20209;-71
2023/01/01 10:12:26;;;;;;;5.27;2.97;;;18.00;1.00;;;;;;8321437;28;20198;-72
2023/01/01 10:16:31;;;;;;;3.90;2.80;;;17.90;1.00;;;;;;8324450;28;20218;-71
2023/01/01 10:20:45;;;;;;;3.93;2.60;;;17.80;1.00;;;;;;8329592;28;20209;-70
2023/01/01 10:24:54;;;;;;;5.77;2.67;;;17.80;1.00;;;;;;8328038;28;20183;-72
2023/01/01 10:29:11;;;;;;;5.33;2.87;;;17.90;1.00;;;;;;8343055;28;20187;-72
2023/01/01 10:33:13;;;;;;;5.03;2.80;;;17.90;1.00;;;;;;8323306;28;20194;-70
2023/01/01 10:37:14;;;;;;;6.17;2.67;;;17.80;1.00;;;;;;8323405;28;20240;-71
2023/01/01 10:41:22;;;;;;;4.23;2.53;;;17.70;1.00;;;;;;8327549;28;20343;-71
2023/01/01 10:45:34;;;;;;;10.13;2.50;;;17.50;1.00;;;;;;8326412;28;20186;-72
2023/01/01 10:50:06;;;;;;;5.17;2.70;;;17.50;1.00;;;;;;8330700;28;20301;-70
2023/01/01 10:54:18;;;;;;;5.10;2.50;;;17.50;1.00;;;;;;8339915;28;20312;-70
2023/01/01 10:58:33;;;;;;;5.60;2.77;;;17.50;1.00;;;;;;8327593;28;20187;-72
2023/01/01 11:02:34;;;;;;;5.53;2.90;;;17.50;1.00;;;;;;8317665;28;20210;-71
2023/01/01 11:06:46;;;;;;;4.53;2.47;;;17.40;1.00;;;;;;8321615;28;20186;-71
2023/01/01 11:10:51;;;;;;;3.63;2.50;;;17.40;1.00;;;;;;8321897;28;20308;-71
2023/01/01 11:14:54;;;;;;;6.57;2.83;;;17.40;1.00;;;;;;8337002;28;20269;-72
2023/01/01 11:19:05;;;;;;;5.30;2.90;;;17.40;1.00;;;;;;8325930;28;20764;-72
2023/01/01 11:23:19;;;;;;;8.73;2.80;;;17.30;1.00;;;;;;8328592;28;20202;-70
2023/01/01 11:27:24;;;;;;;6.73;2.70;;;17.20;1.00;;;;;;8321415;28;20182;-70
2023/01/01 11:31:33;;;;;;;5.17;2.97;;;17.10;1.00;;;;;;8325578;28;20182;-71
2023/01/01 11:35:47;;;;;;;7.13;2.83;;;17.00;1.00;;;;;;8329230;28;20590;-72
2023/01/01 11:39:51;;;;;;;5.57;2.70;;;17.00;1.00;;;;;;8321959;28;20193;-70
2023/01/01 11:43:52;;;;;;;4.43;2.57;;;16.90;1.00;;;;;;8320368;28;20246;-71
2023/01/01 11:48:10;;;;;;;4.50;2.97;;;16.90;1.00;;;;;;8325051;28;20178;-69
2023/01/01 11:52:50;;;;;;;5.27;2.93;;;17.00;1.00;;;;;;8324361;28;20187;-71
2023/01/01 11:57:03;;;;;;;4.70;3.00;;;16.90;1.00;;;;;;8284196;28;20268;-72
2023/01/01 12:01:15;;;;;;;7.13;2.70;;;17.00;1.00;;;;;;8303752;28;20253;-72
2023/01/01 12:05:42;;;;;;;6.43;2.90;;;17.00;1.00;;;;;;8318245;28;20317;-71
2023/01/01 12:10:12;;;;;;;4.83;2.63;;;17.00;1.00;;;;;;8327858;28;20182;-71
2023/01/01 12:14:30;;;;;;;4.57;2.80;;;17.00;1.00;;;;;;8324491;28;20240;-71
2023/01/01 12:19:10;;;;;;;5.57;3.07;;;16.90;1.00;;;;;;8326105;28;20185;-72
2023/01/01 12:23:15;;;;;;;5.97;3.07;;;16.90;1.00;;;;;;8337929;28;20222;-70
2023/01/01 12:27:22;;;;;;;8.00;3.00;;;17.00;1.00;;;;;;8324433;28;20198;-72
2023/01/01 12:32:21;;;;;;;6.27;3.10;;;17.00;1.00;;;;;;8323991;28;20190;-72
2023/01/01 12:36:34;;;;;;;8.53;2.77;;;17.00;1.00;;;;;;8282322;28;20207;-72
2023/01/01 12:40:40;;;;;;;4.13;2.60;;;17.00;1.00;;;;;;8319584;28;20700;-72
2023/01/01 12:45:09;;;;;;;4.97;2.53;;;17.00;1.00;;;;;;8326979;28;20186;-71
2023/01/01 12:49:27;;;;;;;6.60;2.97;;;16.80;1.00;;;;;;8329443;28;20194;-71
2023/01/01 12:53:50;;;;;;;10.37;3.00;;;16.80;1.00;;;;;;8327946;28;20194;-71
2023/01/01 12:58:15;;;;;;;5.93;2.87;;;16.80;1.00;;;;;;8344505;28;20194;-72
2023/01/01 13:02:23;;;;;;;6.27;3.13;;;16.70;1.00;;;;;;8325568;28;20202;-70
2023/01/01 13:06:33;;;;;;;4.63;2.93;;;16.60;1.00;;;;;;8323803;28;21429;-70
2023/01/01 13:10:42;;;;;;;5.83;3.00;;;16.60;1.00;;;;;;8343430;28;20193;-69
2023/01/01 13:14:45;;;;;;;4.77;2.93;;;16.60;1.00;;;;;;8329599;28;20195;-71
2023/01/01 13:18:49;;;;;;;4.70;3.00;;;16.40;1.00;;;;;;8328854;28;20193;-71
2023/01/01 13:22:50;;;;;;;4.43;3.10;;;16.30;1.00;;;;;;8339781;28;20305;-71
2023/01/01 13:26:51;;;;;;;7.43;2.90;;;16.30;1.00;;;;;;8326990;28;20191;-70
2023/01/01 13:30:52;;;;;;;8.87;3.50;;;16.20;1.00;;;;;;8327583;28;20198;-70
2023/01/01 13:35:01;;;;;;;5.90;3.43;;;16.10;1.00;;;;;;8328000;28;20252;-71
2023/01/01 13:39:02;;;;;;;5.93;3.50;;;15.90;1.00;;;;;;8333505;28;20218;-70
2023/01/01 13:43:05;;;;;;;7.17;3.77;;;15.80;1.00;;;;;;8321026;28;20218;-70
2023/01/01 13:47:54;;;;;;;6.63;3.10;;;15.70;1.00;;;;;;8323868;28;20182;-72
2023/01/01 13:52:08;;;;;;;6.50;3.20;;;15.60;1.00;;;;;;8323155;28;20189;-70
2023/01/01 13:56:34;;;;;;;7.93;3.20;;;15.50;1.00;;;;;;8324132;28;20252;-71
2023/01/01 14:00:57;;;;;;;6.83;3.53;;;15.40;1.00;;;;;;8323016;28;20210;-71
2023/01/01 14:05:05;;;;;;;6.03;3.43;;;15.30;1.00;;;;;;8322572;28;20181;-70
2023/01/01 14:09:14;;;;;;;7.20;3.30;;;15.20;1.00;;;;;;8327033;28;20206;-70
2023/01/01 14:13:16;;;;;;;7.77;3.27;;;15.10;1.00;;;;;;8326467;28;20190;-71
2023/01/01 14:17:18;;;;;;;8.83;4.17;;;15.00;1.00;;;;;;8344613;28;20187;-69
2023/01/01 14:21:27;;;;;;;6.63;3.20;;;14.90;1.00;;;;;;8342462;28;20222;-69
2023/01/01 14:25:28;;;;;;;5.77;3.47;;;14.80;1.00;;;;;;8322453;28;20233;-71
2023/01/01 14:29:31;;;;;;;10.60;3.73;;;14.80;1.00;;;;;;8329668;28;20194;-73
2023/01/01 14:33:33;;;;;;;6.87;3.27;;;14.70;1.00;;;;;;8325137;28;20303;-70
2023/01/01 14:37:34;;;;;;;7.93;4.03;;;14.60;1.00;;;;;;8325460;28;20224;-71
2023/01/01 14:41:38;;;;;;;8.70;3.20;;;14.60;1.00;;;;;;8324017;28;20206;-72
2023/01/01 14:45:42;;;;;;;6.53;2.83;;;14.50;1.00;;;;;;8328523;28;20220;-70
2023/01/01 14:49:44;;;;;;;8.90;3.63;;;14.40;1.00;;;;;;8326816;28;20574;-71
2023/01/01 14:53:47;;;;;;;5.73;3.50;;;14.30;1.00;;;;;;8323512;28;20556;-72
2023/01/01 14:57:54;;;;;;;6.20;2.67;;;14.30;1.00;;;;;;8340351;28;20182;-72
2023/01/01 15:02:00;;;;;;;8.07;3.50;;;14.20;1.00;;;;;;8324717;28;20206;-71
2023/01/01 15:06:02;;;;;;;8.80;3.70;;;14.10;1.00;;;;;;8326474;28;20212;-72
2023/01/01 15:10:03;;;;;;;7.20;3.43;;;14.10;1.00;;;;;;8328912;28;20559;-73
2023/01/01 15:14:04;;;;;;;4.43;3.20;;;14.00;1.00;;;;;;8329954;28;20187;-71
2023/01/01 15:18:25;;;;;;;7.13;4.20;;;13.90;1.00;;;;;;8330411;28;20186;-72
2023/01/01 15:22:30;;;;;;;5.97;3.53;;;13.80;1.00;;;;;;8323882;28;20268;-71
2023/01/01 15:26:35;;;;;;;6.77;3.60;;;13.70;1.00;;;;;;8325178;28;20260;-72
2023/01/01 15:30:36;;;;;;;8.60;4.10;;;13.60;1.00;;;;;;8324986;28;20604;-70
2023/01/01 15:34:48;;;;;;;8.07;4.23;;;13.60;1.00;;;;;;8325487;28;20246;-70
2023/01/01 15:38:50;;;;;;;9.87;4.30;;;13.60;1.00;;;;;;8322503;28;20182;-69
2023/01/01 15:42:57;;;;;;;9.17;4.23;;;13.50;1.00;;;;;;8320520;28;20228;-70
2023/01/01 15:47:12;;;;;;;8.33;3.83;;;13.50;5.00;;;;;;8320602;28;20234;-69
2023/01/01 15:51:19;;;;;;;9.03;4.20;;;13.50;7.70;;;;;;8338852;28;20242;-70
2023/01/01 15:55:20;;;;;;;6.67;4.27;;;13.40;12.70;;;;;;8324216;28;20257;-69
2023/01/01 15:59:28;;;;;;;8.07;4.60;;;13.30;19.80;;;;;;8325731;28;20190;-69
2023/01/01 16:03:32;;;;;;;7.07;4.67;;;13.20;23.50;;;;;;8327581;28;20202;-70
2023/01/01 16:07:33;;;;;;;7.83;4.60;;;13.20;31.50;;;;;;8320007;28;20183;-70
2023/01/01 16:11:33;;;;;;;8.40;4.43;;;13.10;34.10;;;;;;8320239;28;20325;-69
2023/01/01 16:15:35;;;;;;;6.97;4.27;;;13.10;36.20;;;;;;8327147;28;20646;-69
2023/01/01 16:19:36;;;;;;;9.33;4.13;;;13.10;37.40;;;;;;8329809;28;20263;-68
2023/01/01 16:23:37;;;;;;;7.07;4.13;;;13.10;55.60;;;;;;8331933;28;20223;-70
2023/01/01 16:27:40;;;;;;;10.23;4.60;;;13.10;39.80;;;;;;8327830;28;20189;-70
2023/01/01 16:31:42;;;;;;;9.40;4.87;;;13.10;39.70;;;;;;8328710;28;20281;-69
2023/01/01 16:35:45;;;;;;;10.97;5.03;;;13.20;40.50;;;;;;8331804;28;20222;-70
2023/01/01 16:39:46;;;;;;;10.83;4.93;;;13.20;30.90;;;;;;8326695;28;20325;-70
2023/01/01 16:43:47;;;;;;;9.70;4.67;;;13.30;31.80;;;;;;8327057;28;20225;-70
2023/01/01 16:47:49;;;;;;;7.40;4.13;;;13.20;30.00;;;;;;8333557;28;20224;-69
2023/01/01 16:51:50;;;;;;;7.60;4.30;;;13.30;28.50;;;;;;8329536;28;20185;-70
2023/01/01 16:55:53;;;;;;;6.93;4.47;;;13.40;24.60;;;;;;8328256;28;20203;-69
2023/01/01 16:59:55;;;;;;;9.20;3.93;;;13.40;23.20;;;;;;8327609;28;20187;-71
2023/01/01 17:03:55;;;;;;;8.90;4.10;;;13.40;22.00;;;;;;8326799;28;20273;-69
2023/01/01 17:07:56;;;;;;;7.63;4.20;;;13.50;19.90;;;;;;8324874;28;20182;-69
2023/01/01 17:11:57;;;;;;;8.33;3.70;;;13.50;19.20;;;;;;8330709;28;20188;-69
2023/01/01 17:15:58;;;;;;;7.37;3.67;;;13.50;18.90;;;;;;8326605;28;20192;-69
2023/01/01 17:20:01;;;;;;;9.00;4.33;;;13.40;18.70;;;;;;8326957;28;20225;-69
2023/01/01 17:24:03;;;;;;;8.63;4.70;;;13.40;19.10;;;;;;8323111;28;20185;-69
2023/01/01 17:28:04;;;;;;;7.03;4.00;;;13.40;21.90;;;;;;8322781;28;20179;-69
2023/01/01 17:32:05;;;;;;;8.30;3.70;;;13.40;19.40;;;;;;8318788;28;20179;-71
2023/01/01 17:36:09;;;;;;;7.17;3.63;;;13.50;19.80;;;;;;8328265;28;20250;-70
2023/01/01 17:40:10;;;;;;;11.97;4.23;;;13.50;18.60;;;;;;8324374;28;20572;-69
2023/01/01 17:44:11;;;;;;;8.60;3.50;;;13.50;25.80;;;;;;8331662;28;20174;-68
2023/01/01 17:48:12;;;;;;;6.60;3.77;;;13.60;18.90;;;;;;8321986;28;20182;-68
2023/01/01 17:52:13;;;;;;;9.00;3.90;;;13.60;13.70;;;;;;8321053;28;20196;-69
2023/01/01 17:56:17;;;;;;;9.03;3.90;;;13.60;12.90;;;;;;8329692;28;20186;-68
2023/01/01 18:00:18;;;;;;;8.57;3.80;;;13.60;11.30;;;;;;8321293;28;20650;-69
2023/01/01 18:04:19;;;;;;;8.17;4.33;;;13.60;10.20;;;;;;8319468;28;20190;-69
2023/01/01 18:08:20;;;;;;;8.03;4.00;;;13.50;11.10;;;;;;8323683;28;20254;-69
2023/01/01 18:12:21;;;;;;;7.90;3.87;;;13.50;13.00;;;;;;8312895;28;20202;-69
2023/01/01 18:16:23;;;;;;;5.97;3.77;;;13.40;13.90;;;;;;8337689;28;20277;-70
2023/01/01 18:20:24;;;;;;;9.40;4.13;;;13.30;16.30;;;;;;8322631;28;20202;-69
2023/01/01 18:24:25;;;;;;;5.83;3.50;;;13.30;18.50;;;;;;8321482;28;20188;-69
2023/01/01 18:28:26;;;;;;;6.13;3.53;;;13.20;20.00;;;;;;8327244;28;20186;-69
2023/01/01 18:32:27;;;;;;;8.17;3.90;;;13.20;22.60;;;;;;8328704;28;20200;-69
2023/01/01 18:36:31;;;;;;;6.13;3.50;;;13.10;25.00;;;;;;8325697;28;20375;-69
2023/01/01 18:40:34;;;;;;;7.37;3.73;;;13.00;27.90;;;;;;8322136;28;20201;-70
2023/01/01 18:44:35;;;;;;;6.10;3.50;;;12.90;30.80;;;;;;8322207;28;20185;-69
2023/01/01 18:48:37;;;;;;;5.77;3.40;;;12.80;35.40;;;;;;8339595;28;20179;-69
2023/01/01 18:52:38;;;;;;;7.00;3.50;;;12.60;42.20;;;;;;8324103;28;20187;-70
2023/01/01 18:56:39;;;;;;;8.57;4.10;;;12.60;47.90;;;;;;8322964;28;20200;-68
2023/01/01 19:00:40;;;;;;;7.43;4.03;;;12.60;51.50;;;;;;8322795;28;20207;-69
2023/01/01 19:04:41;;;;;;;6.93;3.63;;;12.60;56.00;;;;;;8325992;28;20186;-70
2023/01/01 19:08:43;;;;;;;5.20;3.47;;;12.60;59.50;;;;;;8322304;28;20178;-69
2023/01/01 19:12:44;;;;;;;6.47;4.17;;;12.50;63.70;;;;;;8325088;28;20306;-68
2023/01/01 19:16:47;;;;;;;5.83;3.50;;;12.50;64.50;;;;;;8321649;28;20178;-69
2023/01/01 19:20:56;;;;;;;7.50;3.80;;;12.50;67.50;;;;;;8341128;28;20201;-69
2023/01/01 19:24:57;;;;;;;7.77;3.77;;;12.40;71.60;;;;;;8318662;28;20281;-69
2023/01/01 19:29:18;;;;;;;7.43;4.17;;;12.40;76.50;;;;;;8341889;28;20185;-69
2023/01/01 19:33:19;;;;;;;13.53;4.17;;;12.40;79.40;;;;;;8327680;28;20245;-69
2023/01/01 19:37:20;;;;;;;7.63;4.20;;;12.30;89.00;;;;;;8322170;28;20229;-68
2023/01/01 19:41:21;;;;;;;5.87;3.37;;;12.20;95.40;;;;;;8323627;28;20216;-68
2023/01/01 19:45:23;;;;;;;8.27;4.00;;;12.00;99.90;;;;;;8317114;28;20190;-69
2023/01/01 19:49:24;;;;;;;4.70;3.40;;;11.80;99.90;;;;;;8317390;28;20281;-69
2023/01/01 19:53:27;;;;;;;6.57;3.87;;;11.70;99.90;;;;;;8336301;28;20189;-69
2023/01/01 19:57:28;;;;;;;7.77;3.80;;;11.60;99.90;;;;;;8329876;28;20186;-69
2023/01/01 20:01:28;;;;;;;8.87;3.60;;;11.60;99.90;;;;;;8331486;28;20217;-69
2023/01/01 20:05:32;;;;;;;10.00;3.47;;;11.70;99.90;;;;;;8334983;28;20186;-69
2023/01/01 20:09:33;;;;;;;6.50;3.47;;;11.80;99.90;;;;;;8331642;28;20205;-69
2023/01/01 20:13:34;;;;;;;5.97;3.70;;;11.90;99.90;;;;;;8325917;28;20264;-69
2023/01/01 20:17:35;;;;;;;6.03;3.17;;;11.90;99.90;;;;;;8332294;28;20186;-68
2023/01/01 20:25:55;;;;;;;7.93;3.60;;;12.00;99.90;;;;;;8335636;28;20290;-69
2023/01/01 20:29:56;;;;;;;6.30;3.50;;;12.00;99.90;;;;;;8342361;28;20182;-69
2023/01/01 20:33:57;;;;;;;7.60;4.37;;;12.10;99.90;;;;;;8327691;28;20206;-68
2023/01/01 20:37:58;;;;;;;7.63;3.77;;;12.10;99.90;;;;;;8327477;28;20209;-69
2023/01/01 20:41:59;;;;;;;7.90;3.90;;;12.10;99.90;;;;;;8340144;28;20268;-68
2023/01/01 20:46:00;;;;;;;7.67;4.50;;;12.10;99.90;;;;;;8323077;28;20182;-68
2023/01/01 20:50:01;;;;;;;8.90;4.20;;;12.10;99.90;;;;;;8327936;28;20181;-69
2023/01/01 20:54:02;;;;;;;10.40;5.03;;;12.20;99.90;;;;;;8332490;28;20191;-69
2023/01/01 20:58:03;;;;;;;7.53;4.37;;;12.20;99.90;;;;;;8333326;28;20186;-69
2023/01/01 21:02:05;;;;;;;9.17;4.83;;;12.30;99.90;;;;;;8330516;28;20241;-69
2023/01/01 21:06:06;;;;;;;10.07;4.67;;;12.30;99.90;;;;;;8333364;28;20268;-69
2023/01/01 21:10:07;;;;;;;10.70;5.00;;;12.40;99.90;;;;;;8344566;28;20201;-70
2023/01/01 21:14:08;;;;;;;9.03;4.63;;;12.40;99.90;;;;;;8325290;28;20190;-69
2023/01/01 21:18:11;;;;;;;11.13;4.73;;;12.50;99.90;;;;;;8342158;28;20186;-69
2023/01/01 21:22:12;;;;;;;8.33;4.33;;;12.50;99.90;;;;;;8326955;28;20273;-69
2023/01/01 21:26:18;;;;;;;8.53;4.70;;;12.60;99.90;;;;;;8328139;28;20181;-69
2023/01/01 21:30:19;;;;;;;9.37;4.90;;;12.60;99.90;;;;;;8342545;28;20192;-72
2023/01/01 21:34:41;;;;;;;9.77;4.50;;;12.70;99.90;;;;;;8330450;28;20202;-70
2023/01/01 21:38:42;;;;;;;7.70;5.00;;;12.60;99.90;;;;;;8331140;28;20185;-70
2023/01/01 21:42:43;;;;;;;7.37;4.67;;;12.60;99.90;;;;;;8323318;28;20362;-70
2023/01/01 21:46:49;;;;;;;7.50;4.70;;;12.50;99.90;;;;;;8327100;28;20584;-70